Portada
METAR-TAF:

METAR-TAF

Aeroports :

Türkmenabat, Turkmenistan

latitud: 39-05-00N, longitud: 063-36-48E, altitud: 192 m

Observació

L'informe es va fer fa 42 minuts, a les 17:00 UTC
Vent 4 kt del Nord
Temperatura 18°C
Humitat 34%
Pressió 1017 hPa
Visibilitat 10 km o més
sense núvols per sota de 1500 mi sense presència de cumulonimbus.

METAR: UTAV 131700Z 01004KT CAVOK 18/02 Q1017 R31/CLRD70 NOSIG

Hora: 22:42 (17:42 UTC)

Pronòstic

L'informe es va fer fa 7 hores i 12 minuts, a les 10:30 UTC
Pronòstic vàlid del 13 a les 12 UTC al 14 a les 12 UTC
Vent 14 kt del Nord-Oest
Visibilitat 10 km o més
sense núvols per sota de 1500 mi sense presència de cumulonimbus.
Temporalment
l' 13 a les 12 UTC al 13 a les 18 UTC
Vent 14 kt del Nord-Est amb ràfegues de 24 kt
Visibilitat: 3000 m
Núvols disperses a una alçada de 5000 ft
torb baixa de pols

TAF: UTAV 131030Z 1312/1412 32014KT CAVOK TEMPO 1312/1318 04014G24KT 3000 DRDU SCT050

Observacions i pronòstics meteorològics de més de 4000 aeroports (METAR i TAF).

Les estacions disponibles són els punts grocs i vermells al mapa.

Posi el ratolí al punt desitjat per veure el nom de l'estació.

Feu clic per veure les observacions i els pronòstics meteorològics.

Per canviar el mapa: feu clic els botons verds amb una creu de color negre per apropar; al botó verd amb un guió per allunyar la imatge; o en les fletxes verdes per a mapes adjacents.


METAR-TAF: